METAR

Station
VRMM
METAR VRMM 190100Z 12005KT 9999 FEW017TCU BKN110 27/25 Q1009 TEMPO 5000 TSRA=
VRMH
METAR VRMH 190100Z 09006KT 9999 SCT017TCU BKN260 28/23 Q1010=
VRMK
METAR VRMK 190100Z VRB01KT 9999 FEW018 BKN130 26/24 Q1009=
VRMT
METAR VRMT 190100Z VRB02KT 9999 SCT018 24/23 Q1009=
VRMG
METAR VRMG 190100Z 27005KT 9000 FEW018TCU BKN260 25/23 Q1009 NOSIG=
Last Updated : 2021-01-19 06:00:15

SPECI

Station
VRMM
SPECI VRMM 182151Z 17005KT 9999 SCT016TCU BKN110 25/24 Q1008 RESHRA TEMPO 5000 TSRA FEW017CB=
VRMH
VRMK
VRMT
VRMG
Last Updated : 2021-01-19 06:00:15